sensor_id;sensor_type;location;lat;lon;timestamp;pressure;altitude;pressure_sealevel;temperature;humidity
84888;BME280;75150;54.494;18.518;2024-02-23T00:00:18;97861.75;;;6.51;87.57
84888;BME280;75150;54.494;18.518;2024-02-23T00:02:39;97860.78;;;6.52;87.30
84888;BME280;75150;54.494;18.518;2024-02-23T00:04:41;97864.38;;;6.51;86.79
84888;BME280;75150;54.494;18.518;2024-02-23T00:06:43;97865.22;;;6.52;86.87
84888;BME280;75150;54.494;18.518;2024-02-23T00:08:45;97873.75;;;6.54;87.45
84888;BME280;75150;54.494;18.518;2024-02-23T00:10:46;97867.03;;;6.51;86.39
84888;BME280;75150;54.494;18.518;2024-02-23T00:12:48;97859.94;;;6.52;86.90
84888;BME280;75150;54.494;18.518;2024-02-23T00:14:49;97856.34;;;6.53;87.00
84888;BME280;75150;54.494;18.518;2024-02-23T00:16:50;97839.72;;;6.52;86.40
84888;BME280;75150;54.494;18.518;2024-02-23T00:18:52;97838.09;;;6.51;86.57
84888;BME280;75150;54.494;18.518;2024-02-23T00:20:53;97836.28;;;6.52;86.74
84888;BME280;75150;54.494;18.518;2024-02-23T00:22:56;97836.28;;;6.52;86.49
84888;BME280;75150;54.494;18.518;2024-02-23T00:24:57;97828.22;;;6.53;86.86
84888;BME280;75150;54.494;18.518;2024-02-23T00:26:59;97824.63;;;6.54;86.68
84888;BME280;75150;54.494;18.518;2024-02-23T00:29:00;97821.16;;;6.54;86.49
84888;BME280;75150;54.494;18.518;2024-02-23T00:31:02;97817.69;;;6.53;86.55
84888;BME280;75150;54.494;18.518;2024-02-23T00:33:04;97810.50;;;6.55;86.83
84888;BME280;75150;54.494;18.518;2024-02-23T00:35:06;97804.41;;;6.55;86.77
84888;BME280;75150;54.494;18.518;2024-02-23T00:37:07;97812.44;;;6.53;86.00
84888;BME280;75150;54.494;18.518;2024-02-23T00:39:10;97801.78;;;6.55;86.46
84888;BME280;75150;54.494;18.518;2024-02-23T00:41:11;97806.06;;;6.56;86.29
84888;BME280;75150;54.494;18.518;2024-02-23T00:43:13;97807.88;;;6.55;86.70
84888;BME280;75150;54.494;18.518;2024-02-23T00:45:14;97804.25;;;6.56;86.69
84888;BME280;75150;54.494;18.518;2024-02-23T00:47:16;97802.28;;;6.58;86.10
84888;BME280;75150;54.494;18.518;2024-02-23T00:49:17;97811.00;;;6.59;86.13
84888;BME280;75150;54.494;18.518;2024-02-23T00:51:19;97806.38;;;6.61;86.42
84888;BME280;75150;54.494;18.518;2024-02-23T00:53:20;97796.69;;;6.61;86.18
84888;BME280;75150;54.494;18.518;2024-02-23T00:55:23;97804.25;;;6.64;86.13
84888;BME280;75150;54.494;18.518;2024-02-23T00:57:24;97797.34;;;6.63;85.46
84888;BME280;75150;54.494;18.518;2024-02-23T00:59:26;97795.53;;;6.64;85.55
84888;BME280;75150;54.494;18.518;2024-02-23T01:01:27;97801.31;;;6.67;85.69
84888;BME280;75150;54.494;18.518;2024-02-23T01:03:28;97794.25;;;6.68;85.75
84888;BME280;75150;54.494;18.518;2024-02-23T01:05:30;97786.34;;;6.68;85.83
84888;BME280;75150;54.494;18.518;2024-02-23T01:07:31;97775.84;;;6.68;84.78
84888;BME280;75150;54.494;18.518;2024-02-23T01:09:33;97768.75;;;6.68;85.22
84888;BME280;75150;54.494;18.518;2024-02-23T01:11:36;97780.09;;;6.69;85.40
84888;BME280;75150;54.494;18.518;2024-02-23T01:13:37;97774.84;;;6.69;85.45
84888;BME280;75150;54.494;18.518;2024-02-23T01:15:39;97770.56;;;6.68;85.24
84888;BME280;75150;54.494;18.518;2024-02-23T01:17:40;97767.78;;;6.69;84.67
84888;BME280;75150;54.494;18.518;2024-02-23T01:19:42;97773.84;;;6.70;85.46
84888;BME280;75150;54.494;18.518;2024-02-23T01:21:44;97758.06;;;6.70;85.27
84888;BME280;75150;54.494;18.518;2024-02-23T01:23:45;97767.44;;;6.72;85.06
84888;BME280;75150;54.494;18.518;2024-02-23T01:25:47;97764.00;;;6.72;84.81
84888;BME280;75150;54.494;18.518;2024-02-23T01:27:50;97767.28;;;6.74;85.31
84888;BME280;75150;54.494;18.518;2024-02-23T01:29:51;97764.66;;;6.74;84.89
84888;BME280;75150;54.494;18.518;2024-02-23T01:31:52;97762.00;;;6.74;85.38
84888;BME280;75150;54.494;18.518;2024-02-23T01:33:54;97760.22;;;6.74;84.68
84888;BME280;75150;54.494;18.518;2024-02-23T01:35:55;97763.81;;;6.73;85.08
84888;BME280;75150;54.494;18.518;2024-02-23T01:37:56;97760.38;;;6.73;85.60
84888;BME280;75150;54.494;18.518;2024-02-23T01:39:59;97758.06;;;6.70;85.63
84888;BME280;75150;54.494;18.518;2024-02-23T01:42:00;97756.59;;;6.67;86.12
84888;BME280;75150;54.494;18.518;2024-02-23T01:44:03;97748.19;;;6.64;86.08
84888;BME280;75150;54.494;18.518;2024-02-23T01:46:05;97741.09;;;6.64;86.15
84888;BME280;75150;54.494;18.518;2024-02-23T01:48:07;97749.81;;;6.65;86.22
84888;BME280;75150;54.494;18.518;2024-02-23T01:50:09;97751.63;;;6.64;86.40
84888;BME280;75150;54.494;18.518;2024-02-23T01:52:11;97753.44;;;6.64;86.15
84888;BME280;75150;54.494;18.518;2024-02-23T01:54:13;97749.16;;;6.63;86.50
84888;BME280;75150;54.494;18.518;2024-02-23T01:56:15;97751.97;;;6.61;86.44
84888;BME280;75150;54.494;18.518;2024-02-23T01:58:18;97746.88;;;6.60;86.84
84888;BME280;75150;54.494;18.518;2024-02-23T02:00:21;97733.88;;;6.58;87.00
84888;BME280;75150;54.494;18.518;2024-02-23T02:02:22;97738.16;;;6.59;87.08
84888;BME280;75150;54.494;18.518;2024-02-23T02:04:24;97733.88;;;6.58;87.14
84888;BME280;75150;54.494;18.518;2024-02-23T02:06:25;97737.31;;;6.59;87.58
84888;BME280;75150;54.494;18.518;2024-02-23T02:08:26;97738.31;;;6.58;87.52
84888;BME280;75150;54.494;18.518;2024-02-23T02:10:28;97740.78;;;6.59;87.27
84888;BME280;75150;54.494;18.518;2024-02-23T02:12:29;97744.22;;;6.60;87.51
84888;BME280;75150;54.494;18.518;2024-02-23T02:14:31;97744.06;;;6.61;87.65
84888;BME280;75150;54.494;18.518;2024-02-23T02:16:33;97741.44;;;6.61;87.90
84888;BME280;75150;54.494;18.518;2024-02-23T02:18:35;97749.00;;;6.64;87.58
84888;BME280;75150;54.494;18.518;2024-02-23T02:20:38;97751.47;;;6.66;87.82
84888;BME280;75150;54.494;18.518;2024-02-23T02:22:41;97758.41;;;6.67;87.86
84888;BME280;75150;54.494;18.518;2024-02-23T02:24:43;97749.53;;;6.68;88.11
84888;BME280;75150;54.494;18.518;2024-02-23T02:26:44;97747.06;;;6.66;88.16
84888;BME280;75150;54.494;18.518;2024-02-23T02:28:45;97745.53;;;6.64;88.90
84888;BME280;75150;54.494;18.518;2024-02-23T02:30:47;97747.34;;;6.63;89.03
84888;BME280;75150;54.494;18.518;2024-02-23T02:32:50;97734.38;;;6.62;89.14
84888;BME280;75150;54.494;18.518;2024-02-23T02:34:52;97744.06;;;6.61;89.37
84888;BME280;75150;54.494;18.518;2024-02-23T02:36:53;97741.59;;;6.60;89.66
84888;BME280;75150;54.494;18.518;2024-02-23T02:38:54;97746.88;;;6.60;89.74
84888;BME280;75150;54.494;18.518;2024-02-23T02:40:56;97739.97;;;6.59;90.21
84888;BME280;75150;54.494;18.518;2024-02-23T02:42:57;97744.22;;;6.60;89.75
84888;BME280;75150;54.494;18.518;2024-02-23T02:44:59;97749.31;;;6.61;89.65
84888;BME280;75150;54.494;18.518;2024-02-23T02:47:00;97757.22;;;6.61;89.73
84888;BME280;75150;54.494;18.518;2024-02-23T02:49:03;97753.75;;;6.61;89.78
84888;BME280;75150;54.494;18.518;2024-02-23T02:51:05;97760.66;;;6.62;90.15
84888;BME280;75150;54.494;18.518;2024-02-23T02:53:06;97756.41;;;6.61;90.16
84888;BME280;75150;54.494;18.518;2024-02-23T02:55:08;97758.22;;;6.60;90.35
84888;BME280;75150;54.494;18.518;2024-02-23T02:57:10;97752.13;;;6.60;90.23
84888;BME280;75150;54.494;18.518;2024-02-23T02:59:11;97751.97;;;6.61;90.26
84888;BME280;75150;54.494;18.518;2024-02-23T03:01:12;97754.59;;;6.61;90.60
84888;BME280;75150;54.494;18.518;2024-02-23T03:03:14;97751.78;;;6.63;90.22
84888;BME280;75150;54.494;18.518;2024-02-23T03:05:17;97739.47;;;6.63;90.64
84888;BME280;75150;54.494;18.518;2024-02-23T03:07:18;97733.22;;;6.64;90.57
84888;BME280;75150;54.494;18.518;2024-02-23T03:09:20;97731.41;;;6.65;90.67
84888;BME280;75150;54.494;18.518;2024-02-23T03:11:21;97733.91;;;6.66;90.39
84888;BME280;75150;54.494;18.518;2024-02-23T03:13:23;97742.63;;;6.67;90.72
84888;BME280;75150;54.494;18.518;2024-02-23T03:15:24;97733.03;;;6.66;90.37
84888;BME280;75150;54.494;18.518;2024-02-23T03:17:25;97732.22;;;6.65;90.99
84888;BME280;75150;54.494;18.518;2024-02-23T03:19:27;97744.25;;;6.68;90.47
84888;BME280;75150;54.494;18.518;2024-02-23T03:21:30;97740.63;;;6.69;90.79
84888;BME280;75150;54.494;18.518;2024-02-23T03:23:31;97745.91;;;6.69;90.53
84888;BME280;75150;54.494;18.518;2024-02-23T03:25:33;97746.56;;;6.71;90.82
84888;BME280;75150;54.494;18.518;2024-02-23T03:27:36;97754.44;;;6.71;90.37
84888;BME280;75150;54.494;18.518;2024-02-23T03:29:38;97750.84;;;6.72;90.26
84888;BME280;75150;54.494;18.518;2024-02-23T03:31:39;97754.13;;;6.74;90.65
84888;BME280;75150;54.494;18.518;2024-02-23T03:33:41;97751.31;;;6.75;90.17
84888;BME280;75150;54.494;18.518;2024-02-23T03:35:42;97743.25;;;6.77;90.10
84888;BME280;75150;54.494;18.518;2024-02-23T03:37:45;97750.16;;;6.78;89.96
84888;BME280;75150;54.494;18.518;2024-02-23T03:39:46;97755.94;;;6.82;90.45
84888;BME280;75150;54.494;18.518;2024-02-23T03:41:48;97756.78;;;6.82;89.89
84888;BME280;75150;54.494;18.518;2024-02-23T03:43:49;97747.06;;;6.83;90.13
84888;BME280;75150;54.494;18.518;2024-02-23T03:45:51;97761.72;;;6.85;90.44
84888;BME280;75150;54.494;18.518;2024-02-23T03:47:52;97752.00;;;6.86;90.08
84888;BME280;75150;54.494;18.518;2024-02-23T03:49:53;97757.75;;;6.89;90.20
84888;BME280;75150;54.494;18.518;2024-02-23T03:51:55;97765.34;;;6.92;90.31
84888;BME280;75150;54.494;18.518;2024-02-23T03:53:58;97771.59;;;6.91;90.11
84888;BME280;75150;54.494;18.518;2024-02-23T03:55:59;97778.69;;;6.91;90.24
84888;BME280;75150;54.494;18.518;2024-02-23T03:58:00;97770.78;;;6.91;90.26
84888;BME280;75150;54.494;18.518;2024-02-23T04:00:02;97781.31;;;6.91;90.41
84888;BME280;75150;54.494;18.518;2024-02-23T04:02:04;97779.34;;;6.93;90.39
84888;BME280;75150;54.494;18.518;2024-02-23T04:04:06;97780.16;;;6.93;90.52
84888;BME280;75150;54.494;18.518;2024-02-23T04:06:07;97775.72;;;6.94;90.36
84888;BME280;75150;54.494;18.518;2024-02-23T04:08:08;97787.22;;;6.93;90.60
84888;BME280;75150;54.494;18.518;2024-02-23T04:10:11;97783.78;;;6.92;90.64
84888;BME280;75150;54.494;18.518;2024-02-23T04:12:13;97785.25;;;6.95;91.17
84888;BME280;75150;54.494;18.518;2024-02-23T04:14:14;97788.72;;;6.95;90.90
84888;BME280;75150;54.494;18.518;2024-02-23T04:16:15;97793.97;;;6.95;90.79
84888;BME280;75150;54.494;18.518;2024-02-23T04:18:17;97792.81;;;6.98;91.06
84888;BME280;75150;54.494;18.518;2024-02-23T04:20:18;97798.09;;;6.98;90.86
84888;BME280;75150;54.494;18.518;2024-02-23T04:22:20;97797.09;;;6.99;90.73
84888;BME280;75150;54.494;18.518;2024-02-23T04:24:21;97800.38;;;7.01;91.23
84888;BME280;75150;54.494;18.518;2024-02-23T04:26:24;97808.81;;;7.04;91.15
84888;BME280;75150;54.494;18.518;2024-02-23T04:28:25;97806.81;;;7.07;90.65
84888;BME280;75150;54.494;18.518;2024-02-23T04:30:26;97811.94;;;7.08;90.86
84888;BME280;75150;54.494;18.518;2024-02-23T04:32:28;97807.16;;;7.12;90.78
84888;BME280;75150;54.494;18.518;2024-02-23T04:34:29;97803.69;;;7.11;91.02
84888;BME280;75150;54.494;18.518;2024-02-23T04:36:30;97812.41;;;7.12;90.96
84888;BME280;75150;54.494;18.518;2024-02-23T04:38:32;97815.03;;;7.12;90.86
84888;BME280;75150;54.494;18.518;2024-02-23T04:40:34;97819.16;;;7.14;91.06
84888;BME280;75150;54.494;18.518;2024-02-23T04:42:36;97823.31;;;7.17;91.24
84888;BME280;75150;54.494;18.518;2024-02-23T04:44:38;97825.78;;;7.18;91.16
84888;BME280;75150;54.494;18.518;2024-02-23T04:46:39;97822.97;;;7.20;90.39
84888;BME280;75150;54.494;18.518;2024-02-23T04:48:41;97809.81;;;7.20;90.56
84888;BME280;75150;54.494;18.518;2024-02-23T04:50:42;97829.53;;;7.24;90.64
84888;BME280;75150;54.494;18.518;2024-02-23T04:52:43;97810.13;;;7.25;90.65
84888;BME280;75150;54.494;18.518;2024-02-23T04:54:45;97807.31;;;7.26;90.01
84888;BME280;75150;54.494;18.518;2024-02-23T04:56:46;97836.00;;;7.29;90.44
84888;BME280;75150;54.494;18.518;2024-02-23T04:58:49;97837.47;;;7.32;90.33
84888;BME280;75150;54.494;18.518;2024-02-23T05:00:50;97836.31;;;7.34;90.49
84888;BME280;75150;54.494;18.518;2024-02-23T05:02:52;97844.03;;;7.36;90.33
84888;BME280;75150;54.494;18.518;2024-02-23T05:04:53;97839.28;;;7.40;90.82
84888;BME280;75150;54.494;18.518;2024-02-23T05:06:55;97837.47;;;7.40;90.07
84888;BME280;75150;54.494;18.518;2024-02-23T05:08:56;97840.59;;;7.44;90.42
84888;BME280;75150;54.494;18.518;2024-02-23T05:10:57;97841.44;;;7.44;90.14
84888;BME280;75150;54.494;18.518;2024-02-23T05:12:59;97853.28;;;7.48;90.60
84888;BME280;75150;54.494;18.518;2024-02-23T05:15:02;97846.03;;;7.50;90.49
84888;BME280;75150;54.494;18.518;2024-02-23T05:17:03;97854.59;;;7.52;90.42
84888;BME280;75150;54.494;18.518;2024-02-23T05:19:05;97856.91;;;7.55;90.50
84888;BME280;75150;54.494;18.518;2024-02-23T05:21:06;97859.22;;;7.58;90.29
84888;BME280;75150;54.494;18.518;2024-02-23T05:23:08;97857.22;;;7.60;90.62
84888;BME280;75150;54.494;18.518;2024-02-23T05:25:09;97865.78;;;7.62;90.28
84888;BME280;75150;54.494;18.518;2024-02-23T05:27:11;97868.13;;;7.66;90.18
84888;BME280;75150;54.494;18.518;2024-02-23T05:29:12;97856.59;;;7.67;90.24
84888;BME280;75150;54.494;18.518;2024-02-23T05:31:15;97866.97;;;7.68;89.96
84888;BME280;75150;54.494;18.518;2024-02-23T05:33:16;97857.72;;;7.72;89.74
84888;BME280;75150;54.494;18.518;2024-02-23T05:35:18;97864.34;;;7.76;89.83
84888;BME280;75150;54.494;18.518;2024-02-23T05:37:19;97864.00;;;7.79;89.68
84888;BME280;75150;54.494;18.518;2024-02-23T05:39:21;97867.44;;;7.80;89.15
84888;BME280;75150;54.494;18.518;2024-02-23T05:41:22;97874.19;;;7.82;89.49
84888;BME280;75150;54.494;18.518;2024-02-23T05:43:24;97880.13;;;7.84;89.51
84888;BME280;75150;54.494;18.518;2024-02-23T05:45:25;97887.03;;;7.85;89.75
84888;BME280;75150;54.494;18.518;2024-02-23T05:47:28;97885.09;;;7.87;89.60
84888;BME280;75150;54.494;18.518;2024-02-23T05:49:29;97892.13;;;7.87;89.03
84888;BME280;75150;54.494;18.518;2024-02-23T05:51:31;97901.72;;;7.88;88.93
84888;BME280;75150;54.494;18.518;2024-02-23T05:53:32;97907.81;;;7.88;88.17
84888;BME280;75150;54.494;18.518;2024-02-23T05:55:33;97901.56;;;7.89;88.65
84888;BME280;75150;54.494;18.518;2024-02-23T05:57:35;97904.84;;;7.91;89.10
84888;BME280;75150;54.494;18.518;2024-02-23T05:59:36;97912.59;;;7.93;89.11
84888;BME280;75150;54.494;18.518;2024-02-23T06:01:37;97910.94;;;7.92;89.04
84888;BME280;75150;54.494;18.518;2024-02-23T06:03:40;97921.50;;;7.92;89.09
84888;BME280;75150;54.494;18.518;2024-02-23T06:05:42;97914.41;;;7.92;89.00
84888;BME280;75150;54.494;18.518;2024-02-23T06:07:43;97919.50;;;7.94;88.42
84888;BME280;75150;54.494;18.518;2024-02-23T06:09:44;97919.50;;;7.94;89.13
84888;BME280;75150;54.494;18.518;2024-02-23T06:11:46;97926.44;;;7.95;88.52
84888;BME280;75150;54.494;18.518;2024-02-23T06:13:47;97930.88;;;7.94;88.60
84888;BME280;75150;54.494;18.518;2024-02-23T06:15:49;97930.72;;;7.96;89.01
84888;BME280;75150;54.494;18.518;2024-02-23T06:17:50;97936.81;;;7.97;88.68
84888;BME280;75150;54.494;18.518;2024-02-23T06:19:53;97928.72;;;7.98;88.79
84888;BME280;75150;54.494;18.518;2024-02-23T06:21:54;97945.38;;;7.99;88.44
84888;BME280;75150;54.494;18.518;2024-02-23T06:23:56;97939.97;;;8.00;88.84
84888;BME280;75150;54.494;18.518;2024-02-23T06:25:57;97951.31;;;8.01;88.83
84888;BME280;75150;54.494;18.518;2024-02-23T06:27:58;97961.72;;;8.02;88.46
84888;BME280;75150;54.494;18.518;2024-02-23T06:29:59;97960.72;;;8.03;88.13
84888;BME280;75150;54.494;18.518;2024-02-23T06:32:01;97972.56;;;8.07;88.30
84888;BME280;75150;54.494;18.518;2024-02-23T06:34:02;97976.03;;;8.08;88.25
84888;BME280;75150;54.494;18.518;2024-02-23T06:36:06;97972.22;;;8.10;87.82
84888;BME280;75150;54.494;18.518;2024-02-23T06:38:07;97990.56;;;8.12;88.46
84888;BME280;75150;54.494;18.518;2024-02-23T06:40:09;97987.94;;;8.12;88.32
84888;BME280;75150;54.494;18.518;2024-02-23T06:42:11;97988.56;;;8.14;88.21
84888;BME280;75150;54.494;18.518;2024-02-23T06:44:12;97995.66;;;8.13;88.28
84888;BME280;75150;54.494;18.518;2024-02-23T06:46:14;97995.66;;;8.13;88.12
84888;BME280;75150;54.494;18.518;2024-02-23T06:48:15;98004.22;;;8.15;88.10
84888;BME280;75150;54.494;18.518;2024-02-23T06:50:16;98012.97;;;8.16;88.12
84888;BME280;75150;54.494;18.518;2024-02-23T06:52:19;98016.09;;;8.19;88.25
84888;BME280;75150;54.494;18.518;2024-02-23T06:54:21;98019.56;;;8.20;87.90
84888;BME280;75150;54.494;18.518;2024-02-23T06:56:22;98026.31;;;8.22;88.15
84888;BME280;75150;54.494;18.518;2024-02-23T06:58:23;98039.03;;;8.27;87.63
84888;BME280;75150;54.494;18.518;2024-02-23T07:00:25;98043.78;;;8.32;87.67
84888;BME280;75150;54.494;18.518;2024-02-23T07:02:26;98047.09;;;8.34;87.57
84888;BME280;75150;54.494;18.518;2024-02-23T07:04:28;98058.19;;;8.37;86.88
84888;BME280;75150;54.494;18.518;2024-02-23T07:06:29;98060.50;;;8.40;87.31
84888;BME280;75150;54.494;18.518;2024-02-23T07:08:32;98065.59;;;8.42;87.37
84888;BME280;75150;54.494;18.518;2024-02-23T07:10:33;98073.84;;;8.47;87.28
84888;BME280;75150;54.494;18.518;2024-02-23T07:12:42;98081.28;;;8.51;87.27
84888;BME280;75150;54.494;18.518;2024-02-23T07:14:43;98090.69;;;8.54;87.32
84888;BME280;75150;54.494;18.518;2024-02-23T07:16:49;98087.69;;;8.57;86.62
84888;BME280;75150;54.494;18.518;2024-02-23T07:18:50;98082.13;;;8.60;87.21
84888;BME280;75150;54.494;18.518;2024-02-23T07:20:52;98085.41;;;8.62;86.87
84888;BME280;75150;54.494;18.518;2024-02-23T07:22:53;98095.63;;;8.65;86.86
84888;BME280;75150;54.494;18.518;2024-02-23T07:24:56;98104.03;;;8.69;86.84
84888;BME280;75150;54.494;18.518;2024-02-23T07:26:57;98097.75;;;8.70;86.19
84888;BME280;75150;54.494;18.518;2024-02-23T07:28:58;98109.84;;;8.72;86.64
84888;BME280;75150;54.494;18.518;2024-02-23T07:31:00;98107.84;;;8.74;86.41
84888;BME280;75150;54.494;18.518;2024-02-23T07:33:01;98114.44;;;8.78;86.46
84888;BME280;75150;54.494;18.518;2024-02-23T07:35:03;98106.16;;;8.81;86.54
84888;BME280;75150;54.494;18.518;2024-02-23T07:37:05;98105.00;;;8.84;84.56
84888;BME280;75150;54.494;18.518;2024-02-23T07:39:06;98116.25;;;8.86;85.99
84888;BME280;75150;54.494;18.518;2024-02-23T07:41:09;98124.00;;;8.88;85.31
84888;BME280;75150;54.494;18.518;2024-02-23T07:43:10;98127.47;;;8.88;84.80
84888;BME280;75150;54.494;18.518;2024-02-23T07:45:12;98129.78;;;8.91;85.14
84888;BME280;75150;54.494;18.518;2024-02-23T07:47:14;98132.41;;;8.91;84.00
84888;BME280;75150;54.494;18.518;2024-02-23T07:49:15;98137.34;;;8.94;84.48
84888;BME280;75150;54.494;18.518;2024-02-23T07:51:16;98152.91;;;8.97;84.48
84888;BME280;75150;54.494;18.518;2024-02-23T07:53:18;98143.16;;;8.98;84.25
84888;BME280;75150;54.494;18.518;2024-02-23T07:55:19;98154.38;;;9.00;84.23
84888;BME280;75150;54.494;18.518;2024-02-23T07:57:22;98157.50;;;9.03;83.53
84888;BME280;75150;54.494;18.518;2024-02-23T07:59:23;98149.41;;;9.05;83.58
84888;BME280;75150;54.494;18.518;2024-02-23T08:01:25;98153.53;;;9.07;83.67
84888;BME280;75150;54.494;18.518;2024-02-23T08:03:26;98162.13;;;9.09;83.23
84888;BME280;75150;54.494;18.518;2024-02-23T08:05:28;98164.59;;;9.11;82.99
84888;BME280;75150;54.494;18.518;2024-02-23T08:07:29;98174.16;;;9.12;83.12
84888;BME280;75150;54.494;18.518;2024-02-23T08:09:30;98187.88;;;9.16;81.66
84888;BME280;75150;54.494;18.518;2024-02-23T08:11:32;98194.63;;;9.18;82.68
84888;BME280;75150;54.494;18.518;2024-02-23T08:13:35;98201.56;;;9.19;82.45
84888;BME280;75150;54.494;18.518;2024-02-23T08:15:36;98206.53;;;9.22;82.06
84888;BME280;75150;54.494;18.518;2024-02-23T08:17:37;98202.72;;;9.25;82.39
84888;BME280;75150;54.494;18.518;2024-02-23T08:19:39;98201.72;;;9.26;82.40
84888;BME280;75150;54.494;18.518;2024-02-23T08:21:40;98211.13;;;9.28;82.05
84888;BME280;75150;54.494;18.518;2024-02-23T08:23:41;98211.97;;;9.29;82.14
84888;BME280;75150;54.494;18.518;2024-02-23T08:25:43;98214.44;;;9.30;80.83
84888;BME280;75150;54.494;18.518;2024-02-23T08:27:44;98225.19;;;9.29;81.99
84888;BME280;75150;54.494;18.518;2024-02-23T08:29:47;98223.34;;;9.29;81.55
84888;BME280;75150;54.494;18.518;2024-02-23T08:31:48;98230.28;;;9.30;81.46
84888;BME280;75150;54.494;18.518;2024-02-23T08:33:50;98241.50;;;9.32;80.90
84888;BME280;75150;54.494;18.518;2024-02-23T08:35:51;98231.63;;;9.34;81.01
84888;BME280;75150;54.494;18.518;2024-02-23T08:37:52;98235.09;;;9.35;79.75
84888;BME280;75150;54.494;18.518;2024-02-23T08:39:54;98237.22;;;9.39;80.86
84888;BME280;75150;54.494;18.518;2024-02-23T08:41:56;98242.16;;;9.43;80.19
84888;BME280;75150;54.494;18.518;2024-02-23T08:43:57;98243.34;;;9.48;80.13
84888;BME280;75150;54.494;18.518;2024-02-23T08:46:00;98243.16;;;9.50;79.98
84888;BME280;75150;54.494;18.518;2024-02-23T08:48:01;98244.16;;;9.49;78.95
84888;BME280;75150;54.494;18.518;2024-02-23T08:50:03;98244.34;;;9.47;76.82
84888;BME280;75150;54.494;18.518;2024-02-23T08:52:05;98253.91;;;9.48;78.40
84888;BME280;75150;54.494;18.518;2024-02-23T08:54:07;98263.00;;;9.46;79.12
84888;BME280;75150;54.494;18.518;2024-02-23T08:56:08;98272.91;;;9.44;78.03
84888;BME280;75150;54.494;18.518;2024-02-23T08:58:09;98279.53;;;9.39;77.83
84888;BME280;75150;54.494;18.518;2024-02-23T09:00:12;98293.56;;;9.40;77.93
84888;BME280;75150;54.494;18.518;2024-02-23T09:02:15;98296.19;;;9.40;76.37
84888;BME280;75150;54.494;18.518;2024-02-23T09:04:16;98302.31;;;9.40;72.14
84888;BME280;75150;54.494;18.518;2024-02-23T09:06:17;98318.84;;;9.43;77.16
84888;BME280;75150;54.494;18.518;2024-02-23T09:08:19;98317.84;;;9.44;75.80
84888;BME280;75150;54.494;18.518;2024-02-23T09:10:20;98323.94;;;9.44;77.21
84888;BME280;75150;54.494;18.518;2024-02-23T09:12:21;98337.34;;;9.43;76.06
84888;BME280;75150;54.494;18.518;2024-02-23T09:14:23;98335.19;;;9.38;75.10
84888;BME280;75150;54.494;18.518;2024-02-23T09:16:24;98330.41;;;9.33;75.55
84888;BME280;75150;54.494;18.518;2024-02-23T09:18:27;98346.28;;;9.33;73.56
84888;BME280;75150;54.494;18.518;2024-02-23T09:20:28;98345.91;;;9.28;73.68
84888;BME280;75150;54.494;18.518;2024-02-23T09:22:30;98347.06;;;9.26;74.13
84888;BME280;75150;54.494;18.518;2024-02-23T09:24:31;98359.63;;;9.24;71.68
84888;BME280;75150;54.494;18.518;2024-02-23T09:26:33;98365.91;;;9.23;73.00
84888;BME280;75150;54.494;18.518;2024-02-23T09:28:34;98365.09;;;9.22;73.42
84888;BME280;75150;54.494;18.518;2024-02-23T09:30:35;98379.13;;;9.23;73.29
84888;BME280;75150;54.494;18.518;2024-02-23T09:32:37;98381.75;;;9.23;72.70
84888;BME280;75150;54.494;18.518;2024-02-23T09:34:39;98378.78;;;9.26;72.09
84888;BME280;75150;54.494;18.518;2024-02-23T09:36:41;98394.16;;;9.30;72.33
84888;BME280;75150;54.494;18.518;2024-02-23T09:38:42;98380.94;;;9.30;69.87
84888;BME280;75150;54.494;18.518;2024-02-23T09:40:44;98385.09;;;9.33;69.91
84888;BME280;75150;54.494;18.518;2024-02-23T09:42:51;98389.72;;;9.39;70.34
84888;BME280;75150;54.494;18.518;2024-02-23T09:44:58;98394.03;;;9.48;68.08
84888;BME280;75150;54.494;18.518;2024-02-23T09:47:00;98385.59;;;9.53;70.68
84888;BME280;75150;54.494;18.518;2024-02-23T09:49:02;98391.22;;;9.58;71.12
84888;BME280;75150;54.494;18.518;2024-02-23T09:51:05;98398.50;;;9.64;70.32
84888;BME280;75150;54.494;18.518;2024-02-23T09:53:07;98400.97;;;9.65;64.70
84888;BME280;75150;54.494;18.518;2024-02-23T09:55:11;98412.03;;;9.69;70.14
84888;BME280;75150;54.494;18.518;2024-02-23T09:57:14;98416.03;;;9.73;70.34
84888;BME280;75150;54.494;18.518;2024-02-23T09:59:17;98418.34;;;9.76;68.93
84888;BME280;75150;54.494;18.518;2024-02-23T10:01:24;98429.06;;;9.75;63.49
84888;BME280;75150;54.494;18.518;2024-02-23T10:03:29;98422.78;;;9.76;68.83
84888;BME280;75150;54.494;18.518;2024-02-23T10:05:31;98429.72;;;9.77;66.26
84888;BME280;75150;54.494;18.518;2024-02-23T10:07:34;98448.75;;;9.80;68.12
84888;BME280;75150;54.494;18.518;2024-02-23T10:09:35;98455.22;;;9.86;67.35
84888;BME280;75150;54.494;18.518;2024-02-23T10:11:37;98457.69;;;9.87;68.76
84888;BME280;75150;54.494;18.518;2024-02-23T10:13:38;98463.63;;;9.89;68.35
84888;BME280;75150;54.494;18.518;2024-02-23T10:15:39;98467.09;;;9.90;67.84
84888;BME280;75150;54.494;18.518;2024-02-23T10:17:41;98461.00;;;9.89;66.99
84888;BME280;75150;54.494;18.518;2024-02-23T10:19:44;98485.31;;;9.85;64.93
84888;BME280;75150;54.494;18.518;2024-02-23T10:21:45;98480.66;;;9.79;65.79
84888;BME280;75150;54.494;18.518;2024-02-23T10:23:49;98497.19;;;9.73;64.46
84888;BME280;75150;54.494;18.518;2024-02-23T10:25:50;98511.69;;;9.68;64.23
84888;BME280;75150;54.494;18.518;2024-02-23T10:27:52;98515.00;;;9.62;63.73
84888;BME280;75150;54.494;18.518;2024-02-23T10:29:53;98517.97;;;9.59;64.58
84888;BME280;75150;54.494;18.518;2024-02-23T10:31:57;98517.16;;;9.59;63.47
84888;BME280;75150;54.494;18.518;2024-02-23T10:33:58;98529.22;;;9.61;65.06
84888;BME280;75150;54.494;18.518;2024-02-23T10:36:00;98525.75;;;9.61;62.57
84888;BME280;75150;54.494;18.518;2024-02-23T10:38:05;98533.34;;;9.64;63.67
84888;BME280;75150;54.494;18.518;2024-02-23T10:40:11;98547.72;;;9.61;61.98
84888;BME280;75150;54.494;18.518;2024-02-23T10:42:13;98544.41;;;9.59;61.87
84888;BME280;75150;54.494;18.518;2024-02-23T10:44:17;98556.31;;;9.63;63.12